Time;durP1;ratioP1;P1;durP2;ratioP2;P2;SDS_P1;SDS_P2;PMS_P1;PMS_P2;Temp;Humidity;BMP_temperature;BMP_pressure;BME280_temperature;BME280_humidity;BME280_pressure;Samples;Min_cycle;Max_cycle;Signal;HPM_P1;HPM_P2
2022/06/04 00:00:10;;;;;;;87.23;73.10;;;;;;;;;;5052920;28;20467;-42
2022/06/04 00:02:43;;;;;;;97.07;79.07;;;;;;;;;;5050579;28;20186;-42
2022/06/04 00:05:10;;;;;;;114.03;86.23;;;;;;;;;;5056823;28;20178;-42
2022/06/04 00:07:36;;;;;;;112.70;87.93;;;;;;;;;;5049396;28;20174;-42
2022/06/04 00:15:37;;;;;;;115.63;86.17;;;;;;;;;;5052023;28;20826;-42
2022/06/04 00:18:03;;;;;;;107.73;84.10;;;;;;;;;;5048632;28;20179;-43
2022/06/04 00:20:29;;;;;;;110.43;84.90;;;;;;;;;;5052418;28;20206;-42
2022/06/04 00:23:03;;;;;;;99.63;79.40;;;;;;;;;;5052149;28;20186;-43
2022/06/04 00:25:30;;;;;;;91.47;71.43;;;;;;;;;;5048870;28;20179;-43
2022/06/04 00:28:04;;;;;;;82.77;67.23;;;;;;;;;;5045442;28;20262;-42
2022/06/04 00:30:30;;;;;;;103.37;79.27;;;;;;;;;;5048172;28;20190;-41
2022/06/04 00:32:57;;;;;;;96.07;76.40;;;;;;;;;;5052107;28;20178;-43
2022/06/04 00:35:23;;;;;;;94.93;75.60;;;;;;;;;;5049290;28;20187;-43
2022/06/04 00:37:50;;;;;;;83.97;69.70;;;;;;;;;;5054239;28;20194;-43
2022/06/04 00:40:31;;;;;;;94.33;75.43;;;;;;;;;;5052545;28;20217;-42
2022/06/04 00:42:58;;;;;;;88.17;71.33;;;;;;;;;;5054527;28;20582;-42
2022/06/04 00:45:24;;;;;;;77.70;67.53;;;;;;;;;;5058153;28;20178;-43
2022/06/04 00:47:50;;;;;;;86.03;71.30;;;;;;;;;;5053020;28;20183;-42
2022/06/04 00:50:17;;;;;;;87.07;71.43;;;;;;;;;;5048672;28;20569;-42
2022/06/04 00:52:44;;;;;;;81.17;69.67;;;;;;;;;;5051802;28;20603;-43
2022/06/04 00:55:10;;;;;;;101.73;80.70;;;;;;;;;;5049586;28;20291;-42
2022/06/04 00:57:55;;;;;;;82.93;69.63;;;;;;;;;;5048160;28;20186;-42
2022/06/04 01:00:28;;;;;;;106.27;85.70;;;;;;;;;;5053953;28;20748;-43
2022/06/04 01:03:12;;;;;;;120.43;89.23;;;;;;;;;;5053770;28;20595;-42
2022/06/04 01:05:47;;;;;;;96.80;76.43;;;;;;;;;;5049796;28;20237;-42
2022/06/04 01:08:32;;;;;;;102.90;81.90;;;;;;;;;;5053498;28;20186;-43
2022/06/04 01:10:58;;;;;;;86.20;69.67;;;;;;;;;;5050037;28;20179;-42
2022/06/04 01:13:25;;;;;;;83.47;69.27;;;;;;;;;;5053834;28;20205;-43
2022/06/04 01:15:51;;;;;;;103.40;80.63;;;;;;;;;;5054685;28;20202;-43
2022/06/04 01:18:32;;;;;;;84.97;70.67;;;;;;;;;;5055433;28;20171;-43
2022/06/04 01:21:02;;;;;;;91.70;72.60;;;;;;;;;;5053992;28;21608;-43
2022/06/04 01:23:29;;;;;;;78.77;65.23;;;;;;;;;;5055646;28;21792;-43
2022/06/04 01:26:03;;;;;;;103.57;78.33;;;;;;;;;;5055728;28;21126;-43
2022/06/04 01:28:31;;;;;;;96.37;75.23;;;;;;;;;;5053527;28;20213;-43
2022/06/04 01:31:02;;;;;;;97.03;74.13;;;;;;;;;;5052916;28;20734;-42
2022/06/04 01:33:34;;;;;;;86.27;68.40;;;;;;;;;;5052621;28;20244;-43
2022/06/04 01:36:05;;;;;;;101.03;79.67;;;;;;;;;;5053928;28;21210;-42
2022/06/04 01:38:35;;;;;;;112.13;84.03;;;;;;;;;;5057629;28;21130;-43
2022/06/04 01:41:04;;;;;;;112.27;84.90;;;;;;;;;;5058388;28;20202;-43
2022/06/04 01:43:36;;;;;;;106.93;79.00;;;;;;;;;;5052699;28;20178;-43
2022/06/04 01:46:07;;;;;;;113.70;82.33;;;;;;;;;;5057686;28;20175;-41
2022/06/04 01:48:37;;;;;;;118.67;85.10;;;;;;;;;;5053164;28;20183;-43
2022/06/04 01:51:04;;;;;;;112.87;82.17;;;;;;;;;;5050507;28;20614;-42
2022/06/04 01:53:33;;;;;;;100.50;76.90;;;;;;;;;;5048804;28;20264;-42
2022/06/04 01:56:01;;;;;;;115.33;87.87;;;;;;;;;;5048641;28;20682;-41
2022/06/04 01:59:03;;;;;;;117.97;83.57;;;;;;;;;;5056450;28;20184;-43
2022/06/04 02:01:30;;;;;;;98.33;71.23;;;;;;;;;;4984630;28;20184;-43
2022/06/04 02:03:59;;;;;;;83.03;65.50;;;;;;;;;;5037051;28;20186;-43
2022/06/04 02:06:28;;;;;;;83.27;65.53;;;;;;;;;;5050984;28;20260;-43
2022/06/04 02:09:09;;;;;;;96.63;75.10;;;;;;;;;;5050310;28;20523;-42
2022/06/04 02:11:38;;;;;;;99.33;74.83;;;;;;;;;;5049861;28;20706;-44
2022/06/04 02:14:05;;;;;;;88.67;69.47;;;;;;;;;;5055544;28;21012;-44
2022/06/04 02:16:43;;;;;;;99.70;75.83;;;;;;;;;;5051195;28;20515;-44
2022/06/04 02:19:09;;;;;;;90.90;71.87;;;;;;;;;;5047923;28;20213;-44
2022/06/04 02:21:35;;;;;;;94.20;70.77;;;;;;;;;;5051675;28;20507;-43
2022/06/04 02:24:02;;;;;;;94.47;73.70;;;;;;;;;;5050638;28;20725;-43
2022/06/04 02:26:28;;;;;;;117.50;81.30;;;;;;;;;;5043538;28;20214;-44
2022/06/04 02:28:58;;;;;;;92.13;73.73;;;;;;;;;;5048061;28;20474;-43
2022/06/04 02:31:43;;;;;;;84.63;67.13;;;;;;;;;;5050348;28;20182;-43
2022/06/04 02:34:09;;;;;;;90.27;70.40;;;;;;;;;;5049959;28;20268;-44
2022/06/04 02:36:58;;;;;;;104.40;77.27;;;;;;;;;;5043409;28;20489;-44
2022/06/04 02:39:29;;;;;;;87.33;69.47;;;;;;;;;;5013710;28;20510;-43
2022/06/04 02:42:04;;;;;;;85.60;67.30;;;;;;;;;;5047787;28;20162;-44
2022/06/04 02:44:32;;;;;;;112.50;82.37;;;;;;;;;;5039303;28;20837;-44
2022/06/04 02:46:58;;;;;;;84.83;67.27;;;;;;;;;;5047423;28;20507;-44
2022/06/04 02:49:27;;;;;;;115.57;83.67;;;;;;;;;;5039175;28;20183;-44
2022/06/04 02:51:54;;;;;;;88.73;69.00;;;;;;;;;;5042991;28;20240;-44
2022/06/04 02:54:23;;;;;;;113.33;81.93;;;;;;;;;;5047371;28;20780;-44
2022/06/04 02:56:51;;;;;;;99.50;73.63;;;;;;;;;;5044099;28;20186;-44
2022/06/04 02:59:18;;;;;;;99.53;76.70;;;;;;;;;;5045578;28;20485;-44
2022/06/04 03:01:44;;;;;;;86.93;68.83;;;;;;;;;;5046254;28;20172;-44
2022/06/04 03:04:11;;;;;;;102.50;78.07;;;;;;;;;;5048090;28;20523;-43
2022/06/04 03:06:38;;;;;;;85.53;69.10;;;;;;;;;;5051981;28;20213;-43
2022/06/04 03:09:09;;;;;;;88.97;68.47;;;;;;;;;;5054696;28;20188;-43
2022/06/04 03:11:39;;;;;;;90.03;67.10;;;;;;;;;;5050276;28;20614;-44
2022/06/04 03:14:05;;;;;;;96.07;70.27;;;;;;;;;;5044320;28;20681;-44
2022/06/04 03:16:36;;;;;;;107.37;77.13;;;;;;;;;;5049720;28;20708;-44
2022/06/04 03:19:02;;;;;;;82.30;63.77;;;;;;;;;;5052700;28;20201;-44
2022/06/04 03:21:29;;;;;;;87.33;66.83;;;;;;;;;;5054491;28;20337;-44
2022/06/04 03:23:55;;;;;;;100.50;74.20;;;;;;;;;;5056121;28;20296;-44
2022/06/04 03:26:21;;;;;;;92.90;67.93;;;;;;;;;;5055011;28;20179;-44
2022/06/04 03:28:47;;;;;;;99.90;74.50;;;;;;;;;;5050835;28;20174;-42
2022/06/04 03:31:14;;;;;;;104.23;73.07;;;;;;;;;;5052176;28;20308;-44
2022/06/04 03:33:40;;;;;;;85.87;63.37;;;;;;;;;;5054929;28;20224;-44
2022/06/04 03:36:08;;;;;;;91.67;70.57;;;;;;;;;;5048153;28;20764;-44
2022/06/04 03:38:34;;;;;;;78.93;61.07;;;;;;;;;;5063171;27;20193;-43
2022/06/04 03:41:00;;;;;;;84.17;63.20;;;;;;;;;;5052832;28;20706;-44
2022/06/04 03:43:27;;;;;;;79.13;60.83;;;;;;;;;;5053315;28;20531;-44
2022/06/04 03:45:53;;;;;;;80.77;62.07;;;;;;;;;;5052896;28;20183;-44
2022/06/04 03:48:19;;;;;;;78.47;62.30;;;;;;;;;;5047589;28;20805;-44
2022/06/04 03:50:45;;;;;;;82.83;61.10;;;;;;;;;;5052930;28;20183;-44
2022/06/04 03:53:11;;;;;;;75.17;60.80;;;;;;;;;;5053619;28;20179;-44
2022/06/04 03:55:38;;;;;;;73.53;59.13;;;;;;;;;;5052770;28;20633;-44
2022/06/04 03:58:04;;;;;;;71.27;57.07;;;;;;;;;;5055636;28;20302;-44
2022/06/04 04:00:34;;;;;;;71.83;58.47;;;;;;;;;;5052173;28;20591;-44
2022/06/04 04:03:06;;;;;;;77.67;57.60;;;;;;;;;;5047340;28;20680;-43
2022/06/04 04:05:34;;;;;;;80.77;62.53;;;;;;;;;;5052147;28;20178;-43
2022/06/04 04:08:01;;;;;;;77.90;60.60;;;;;;;;;;5053145;28;20182;-44
2022/06/04 04:10:27;;;;;;;77.00;57.80;;;;;;;;;;5050387;28;20618;-43
2022/06/04 04:12:54;;;;;;;79.20;58.20;;;;;;;;;;5053279;28;20198;-44
2022/06/04 04:15:20;;;;;;;90.30;64.00;;;;;;;;;;5054547;27;20998;-44
2022/06/04 04:17:47;;;;;;;90.07;59.63;;;;;;;;;;5052791;28;20217;-43
2022/06/04 04:20:15;;;;;;;100.40;66.33;;;;;;;;;;5053119;28;20740;-44
2022/06/04 04:22:41;;;;;;;81.53;57.80;;;;;;;;;;5054891;28;20175;-44
2022/06/04 04:25:08;;;;;;;84.83;61.90;;;;;;;;;;5054405;28;20185;-43
2022/06/04 04:27:36;;;;;;;90.23;63.37;;;;;;;;;;5053107;28;21078;-44
2022/06/04 04:30:03;;;;;;;81.20;59.67;;;;;;;;;;5053474;28;20245;-43
2022/06/04 04:32:29;;;;;;;88.30;62.37;;;;;;;;;;5056031;28;20765;-44
2022/06/04 04:34:55;;;;;;;80.03;59.50;;;;;;;;;;5050085;28;20615;-44
2022/06/04 04:37:21;;;;;;;105.37;71.60;;;;;;;;;;5042656;28;20201;-44
2022/06/04 04:39:47;;;;;;;90.10;66.20;;;;;;;;;;5053158;28;20217;-44
2022/06/04 04:42:13;;;;;;;88.77;67.37;;;;;;;;;;5050411;28;21455;-44
2022/06/04 04:44:39;;;;;;;81.00;60.87;;;;;;;;;;5051156;28;20171;-44
2022/06/04 04:47:05;;;;;;;88.40;63.43;;;;;;;;;;5050593;28;20178;-44
2022/06/04 04:49:31;;;;;;;98.97;69.37;;;;;;;;;;5048957;28;20190;-44
2022/06/04 04:51:59;;;;;;;85.67;61.40;;;;;;;;;;5055145;28;20741;-44
2022/06/04 04:54:25;;;;;;;82.87;59.70;;;;;;;;;;5061348;28;20899;-44
2022/06/04 04:56:51;;;;;;;85.87;61.73;;;;;;;;;;5058311;28;20602;-44
2022/06/04 04:59:17;;;;;;;84.77;60.53;;;;;;;;;;5047883;28;20183;-43
2022/06/04 05:01:44;;;;;;;77.60;57.27;;;;;;;;;;5047385;28;20183;-44
2022/06/04 05:04:10;;;;;;;84.57;59.53;;;;;;;;;;5045461;28;20806;-44
2022/06/04 05:06:36;;;;;;;89.57;63.23;;;;;;;;;;5048024;28;20171;-44
2022/06/04 05:09:03;;;;;;;94.47;67.67;;;;;;;;;;5048294;28;20198;-44
2022/06/04 05:11:31;;;;;;;95.10;66.43;;;;;;;;;;5050027;28;20924;-44
2022/06/04 05:13:58;;;;;;;100.13;66.00;;;;;;;;;;5043862;28;20193;-43
2022/06/04 05:16:26;;;;;;;104.20;67.27;;;;;;;;;;5047652;28;20180;-44
2022/06/04 05:18:52;;;;;;;82.70;59.13;;;;;;;;;;5046941;28;20544;-44
2022/06/04 05:21:23;;;;;;;93.63;63.53;;;;;;;;;;5041552;28;20211;-44
2022/06/04 05:23:49;;;;;;;90.43;65.03;;;;;;;;;;5048128;28;20266;-44
2022/06/04 05:26:16;;;;;;;89.23;62.57;;;;;;;;;;5046382;28;20198;-44
2022/06/04 05:28:42;;;;;;;86.77;61.40;;;;;;;;;;5048228;28;20710;-44
2022/06/04 05:31:09;;;;;;;84.50;59.00;;;;;;;;;;5043127;28;20490;-43
2022/06/04 05:33:35;;;;;;;84.57;59.47;;;;;;;;;;5044896;28;20484;-44
2022/06/04 05:36:02;;;;;;;91.60;61.57;;;;;;;;;;5042947;28;20611;-43
2022/06/04 05:38:28;;;;;;;81.87;59.40;;;;;;;;;;5046749;28;20178;-44
2022/06/04 05:41:06;;;;;;;73.00;54.03;;;;;;;;;;5048364;28;20214;-44
2022/06/04 05:43:34;;;;;;;71.37;52.70;;;;;;;;;;5047851;28;21008;-44
2022/06/04 05:46:05;;;;;;;69.70;50.73;;;;;;;;;;5045131;28;20787;-44
2022/06/04 05:48:31;;;;;;;70.87;49.63;;;;;;;;;;5050261;28;20178;-44
2022/06/04 05:50:58;;;;;;;61.63;45.77;;;;;;;;;;5046687;28;20186;-44
2022/06/04 05:53:24;;;;;;;63.47;47.70;;;;;;;;;;5044941;28;20630;-44
2022/06/04 05:55:50;;;;;;;55.50;45.60;;;;;;;;;;5048477;28;20267;-44
2022/06/04 05:58:17;;;;;;;61.33;45.13;;;;;;;;;;5049034;28;20732;-44
2022/06/04 06:00:44;;;;;;;68.73;49.53;;;;;;;;;;5046299;28;20777;-44
2022/06/04 06:03:10;;;;;;;74.27;55.63;;;;;;;;;;5045600;28;20827;-44
2022/06/04 06:05:41;;;;;;;91.97;61.90;;;;;;;;;;5047405;28;20278;-44
2022/06/04 06:08:07;;;;;;;83.87;61.87;;;;;;;;;;5046660;28;20373;-44
2022/06/04 06:10:33;;;;;;;94.73;64.97;;;;;;;;;;5047682;28;20182;-44
2022/06/04 06:12:59;;;;;;;80.83;58.77;;;;;;;;;;5050924;28;20323;-44
2022/06/04 06:15:25;;;;;;;94.97;64.63;;;;;;;;;;5045268;28;20223;-44
2022/06/04 06:17:51;;;;;;;90.73;63.67;;;;;;;;;;5049574;28;20233;-44
2022/06/04 06:20:17;;;;;;;78.67;59.07;;;;;;;;;;5049471;28;20198;-44
2022/06/04 06:22:43;;;;;;;78.33;58.27;;;;;;;;;;5047631;28;20175;-44
2022/06/04 06:25:10;;;;;;;71.17;53.93;;;;;;;;;;5048745;28;20181;-44
2022/06/04 06:27:36;;;;;;;77.47;54.90;;;;;;;;;;5047410;28;20503;-44
2022/06/04 06:30:02;;;;;;;82.80;59.13;;;;;;;;;;5047793;28;20676;-44
2022/06/04 06:32:28;;;;;;;74.23;55.27;;;;;;;;;;5050351;28;20212;-43
2022/06/04 06:34:54;;;;;;;78.10;54.90;;;;;;;;;;5044826;28;20698;-44
2022/06/04 06:37:20;;;;;;;74.27;55.23;;;;;;;;;;5046068;28;20179;-44
2022/06/04 06:39:46;;;;;;;66.53;50.93;;;;;;;;;;5050369;28;20206;-44
2022/06/04 06:42:12;;;;;;;80.20;56.27;;;;;;;;;;5054434;28;20715;-43
2022/06/04 06:44:39;;;;;;;73.70;53.17;;;;;;;;;;5051379;28;20447;-44
2022/06/04 06:47:07;;;;;;;69.07;51.37;;;;;;;;;;5051878;28;20176;-44
2022/06/04 06:49:33;;;;;;;67.80;52.23;;;;;;;;;;5052461;28;20183;-44
2022/06/04 06:52:01;;;;;;;73.47;54.10;;;;;;;;;;5048971;28;20303;-44
2022/06/04 06:54:28;;;;;;;66.73;49.23;;;;;;;;;;5048555;28;20178;-42
2022/06/04 06:56:56;;;;;;;70.13;51.33;;;;;;;;;;5050559;28;20750;-41
2022/06/04 06:59:24;;;;;;;71.53;54.17;;;;;;;;;;5054324;28;20559;-43
2022/06/04 07:01:51;;;;;;;63.50;50.50;;;;;;;;;;5050865;28;20684;-43
2022/06/04 07:04:18;;;;;;;69.10;53.00;;;;;;;;;;5045557;28;20168;-43
2022/06/04 07:06:45;;;;;;;65.73;51.90;;;;;;;;;;5051090;28;20418;-44
2022/06/04 07:09:22;;;;;;;70.90;52.03;;;;;;;;;;5051285;28;21104;-45
2022/06/04 07:11:48;;;;;;;64.00;49.83;;;;;;;;;;5049477;28;20189;-43
2022/06/04 07:14:14;;;;;;;59.47;46.53;;;;;;;;;;5053229;28;20276;-44
2022/06/04 07:16:41;;;;;;;60.17;47.17;;;;;;;;;;5050497;28;20211;-44
2022/06/04 07:19:07;;;;;;;64.00;49.10;;;;;;;;;;5049462;28;20329;-43
2022/06/04 07:21:34;;;;;;;61.73;50.67;;;;;;;;;;5051929;28;20674;-44
2022/06/04 07:24:01;;;;;;;73.67;54.27;;;;;;;;;;5054247;28;20236;-43
2022/06/04 07:26:27;;;;;;;69.97;51.27;;;;;;;;;;5052350;28;20178;-43
2022/06/04 07:28:54;;;;;;;69.60;53.60;;;;;;;;;;5047533;28;20203;-44
2022/06/04 07:31:20;;;;;;;64.67;50.40;;;;;;;;;;5046218;28;20668;-44
2022/06/04 07:33:47;;;;;;;64.93;48.47;;;;;;;;;;5050363;28;20553;-44
2022/06/04 07:36:17;;;;;;;58.37;45.17;;;;;;;;;;5049875;28;20781;-44
2022/06/04 07:38:44;;;;;;;63.27;50.13;;;;;;;;;;5045545;28;20244;-44
2022/06/04 07:41:24;;;;;;;61.83;48.30;;;;;;;;;;5050083;28;20203;-44
2022/06/04 07:43:51;;;;;;;74.73;58.13;;;;;;;;;;5049455;28;20256;-44
2022/06/04 07:46:17;;;;;;;83.37;57.17;;;;;;;;;;5048089;28;20315;-44
2022/06/04 07:48:43;;;;;;;65.50;50.43;;;;;;;;;;5048404;28;20628;-44
2022/06/04 07:51:09;;;;;;;67.93;52.10;;;;;;;;;;5045693;28;20609;-44
2022/06/04 07:53:36;;;;;;;66.40;50.93;;;;;;;;;;5047019;28;20190;-44
2022/06/04 07:56:09;;;;;;;68.07;52.13;;;;;;;;;;5046425;28;20210;-45
2022/06/04 07:58:35;;;;;;;65.73;50.73;;;;;;;;;;5059872;28;20722;-45
2022/06/04 08:01:03;;;;;;;60.87;49.77;;;;;;;;;;5065218;28;20280;-45
2022/06/04 08:03:29;;;;;;;66.97;50.23;;;;;;;;;;5060228;28;20595;-44
2022/06/04 08:05:55;;;;;;;73.97;55.67;;;;;;;;;;5059531;28;20301;-44
2022/06/04 08:08:21;;;;;;;73.40;56.83;;;;;;;;;;5050391;28;20179;-44
2022/06/04 08:10:48;;;;;;;74.07;57.87;;;;;;;;;;5048058;28;20175;-44
2022/06/04 08:13:24;;;;;;;74.37;56.83;;;;;;;;;;5052544;28;20178;-44
2022/06/04 08:15:51;;;;;;;69.97;54.17;;;;;;;;;;5050485;28;20194;-44
2022/06/04 08:18:17;;;;;;;65.57;51.73;;;;;;;;;;5049347;28;20213;-44
2022/06/04 08:20:44;;;;;;;62.77;49.97;;;;;;;;;;5049786;28;20195;-43
2022/06/04 08:23:10;;;;;;;60.87;47.27;;;;;;;;;;5049021;28;20266;-44
2022/06/04 08:25:40;;;;;;;63.33;50.53;;;;;;;;;;5048204;28;20167;-44
2022/06/04 08:28:06;;;;;;;71.33;55.13;;;;;;;;;;5049567;28;20174;-44
2022/06/04 08:30:33;;;;;;;66.87;51.40;;;;;;;;;;5051178;28;20179;-43
2022/06/04 08:32:59;;;;;;;56.47;45.80;;;;;;;;;;5046282;28;20681;-43
2022/06/04 08:35:25;;;;;;;55.63;44.07;;;;;;;;;;5052368;28;20175;-44
2022/06/04 08:37:51;;;;;;;51.17;41.33;;;;;;;;;;5050218;28;20191;-44
2022/06/04 08:40:25;;;;;;;56.63;45.07;;;;;;;;;;5047498;28;21017;-43
2022/06/04 08:43:27;;;;;;;60.63;46.00;;;;;;;;;;5057099;27;20175;-44
2022/06/04 08:45:53;;;;;;;56.07;46.23;;;;;;;;;;5002875;28;20184;-43
2022/06/04 08:48:23;;;;;;;52.60;42.33;;;;;;;;;;5036378;28;20183;-44
2022/06/04 08:50:49;;;;;;;56.53;43.97;;;;;;;;;;5043224;28;20799;-44
2022/06/04 08:53:19;;;;;;;60.10;45.30;;;;;;;;;;5049479;28;20244;-43
2022/06/04 08:58:44;;;;;;;56.23;42.23;;;;;;;;;;5042449;28;20183;-43
2022/06/04 09:01:19;;;;;;;56.67;43.83;;;;;;;;;;5045253;28;21047;-44
2022/06/04 09:03:55;;;;;;;56.53;44.30;;;;;;;;;;5049680;28;20216;-43
2022/06/04 09:06:38;;;;;;;56.80;42.73;;;;;;;;;;5041113;28;20166;-43
2022/06/04 09:09:12;;;;;;;53.93;43.37;;;;;;;;;;5043411;28;20172;-44
2022/06/04 09:11:47;;;;;;;53.47;42.07;;;;;;;;;;5044775;28;20175;-43
2022/06/04 09:14:31;;;;;;;50.73;40.90;;;;;;;;;;5037772;28;20194;-43
2022/06/04 09:17:00;;;;;;;53.27;39.60;;;;;;;;;;5042528;28;20170;-43
2022/06/04 09:19:30;;;;;;;48.97;39.10;;;;;;;;;;5045068;28;20171;-44
2022/06/04 09:21:58;;;;;;;53.50;40.63;;;;;;;;;;5044478;28;20186;-43
2022/06/04 09:24:25;;;;;;;50.87;38.73;;;;;;;;;;5042786;28;20308;-43
2022/06/04 09:26:54;;;;;;;54.07;41.00;;;;;;;;;;5045536;28;20182;-43
2022/06/04 09:29:45;;;;;;;47.13;37.97;;;;;;;;;;5047820;28;20994;-43
2022/06/04 09:32:44;;;;;;;48.87;39.97;;;;;;;;;;5039270;28;20174;-43
2022/06/04 09:35:10;;;;;;;47.53;36.70;;;;;;;;;;5043332;28;20179;-43
2022/06/04 09:37:43;;;;;;;46.20;38.43;;;;;;;;;;5042135;28;20163;-44
2022/06/04 09:40:17;;;;;;;52.67;39.40;;;;;;;;;;5041730;28;20196;-44
2022/06/04 09:42:44;;;;;;;55.47;42.17;;;;;;;;;;5043681;28;20167;-44
2022/06/04 09:45:26;;;;;;;51.33;39.87;;;;;;;;;;5037986;28;20182;-44
2022/06/04 09:47:55;;;;;;;56.33;41.97;;;;;;;;;;5037369;28;20167;-44
2022/06/04 09:50:21;;;;;;;55.87;42.57;;;;;;;;;;5032750;28;20185;-43
2022/06/04 09:52:56;;;;;;;46.83;37.83;;;;;;;;;;5042818;28;20207;-43
2022/06/04 09:55:24;;;;;;;49.90;39.23;;;;;;;;;;5048159;28;20254;-43
2022/06/04 09:57:56;;;;;;;58.03;40.63;;;;;;;;;;5047634;28;20199;-44
2022/06/04 10:00:24;;;;;;;47.40;39.83;;;;;;;;;;5048254;28;21037;-43
2022/06/04 10:02:54;;;;;;;53.10;40.27;;;;;;;;;;5049241;28;20252;-43
2022/06/04 10:05:21;;;;;;;55.20;41.67;;;;;;;;;;5047196;28;20884;-45
2022/06/04 10:07:47;;;;;;;46.40;38.77;;;;;;;;;;5050036;28;20175;-43
2022/06/04 10:10:14;;;;;;;50.77;40.30;;;;;;;;;;5050543;28;21249;-44
2022/06/04 10:15:38;;;;;;;52.83;42.23;;;;;;;;;;5050386;28;20209;-44
2022/06/04 10:18:23;;;;;;;50.83;40.67;;;;;;;;;;5053364;28;20641;-44
2022/06/04 10:21:11;;;;;;;51.90;40.83;;;;;;;;;;5048340;28;20910;-44
2022/06/04 10:23:45;;;;;;;47.57;39.37;;;;;;;;;;5050607;28;20607;-44
2022/06/04 10:26:29;;;;;;;45.23;37.13;;;;;;;;;;5048547;28;20419;-44
2022/06/04 10:29:04;;;;;;;52.00;40.77;;;;;;;;;;5046234;28;20186;-44
2022/06/04 10:31:34;;;;;;;48.00;40.23;;;;;;;;;;5054206;28;20171;-44
2022/06/04 10:34:06;;;;;;;45.77;37.87;;;;;;;;;;5052542;28;20179;-43
2022/06/04 10:36:41;;;;;;;50.60;41.57;;;;;;;;;;5050407;28;20189;-44
2022/06/04 10:39:13;;;;;;;54.60;42.30;;;;;;;;;;5046400;28;20181;-44
2022/06/04 10:42:02;;;;;;;54.83;41.97;;;;;;;;;;5046412;28;20920;-44
2022/06/04 10:44:31;;;;;;;52.17;40.50;;;;;;;;;;5054585;28;20198;-44
2022/06/04 10:47:13;;;;;;;48.63;39.13;;;;;;;;;;5062994;28;20251;-44
2022/06/04 10:49:48;;;;;;;51.03;41.23;;;;;;;;;;5059844;28;21254;-44
2022/06/04 10:52:39;;;;;;;43.90;36.80;;;;;;;;;;5061088;28;20305;-43
2022/06/04 10:55:17;;;;;;;47.30;39.37;;;;;;;;;;5053717;28;20311;-44
2022/06/04 10:57:43;;;;;;;51.03;40.13;;;;;;;;;;5059031;28;20191;-44
2022/06/04 11:00:12;;;;;;;46.13;35.63;;;;;;;;;;5059092;28;20755;-43
2022/06/04 11:02:57;;;;;;;46.70;37.87;;;;;;;;;;5059479;28;20636;-44
2022/06/04 11:05:26;;;;;;;42.20;33.83;;;;;;;;;;5054146;28;20172;-43
2022/06/04 11:07:55;;;;;;;43.33;36.63;;;;;;;;;;5054413;28;20175;-43
2022/06/04 11:10:29;;;;;;;48.37;36.03;;;;;;;;;;5048825;28;20206;-43
2022/06/04 11:12:59;;;;;;;44.13;34.90;;;;;;;;;;5057794;28;20183;-43
2022/06/04 11:15:38;;;;;;;41.43;35.97;;;;;;;;;;5062046;28;20186;-43
2022/06/04 11:18:17;;;;;;;47.17;37.73;;;;;;;;;;5053386;28;20206;-43
2022/06/04 11:20:49;;;;;;;46.33;37.03;;;;;;;;;;5056713;28;20241;-43
2022/06/04 11:23:34;;;;;;;41.03;33.93;;;;;;;;;;5059738;28;20171;-43
2022/06/04 11:26:07;;;;;;;42.53;34.80;;;;;;;;;;5057451;28;20206;-42
2022/06/04 11:28:33;;;;;;;40.83;34.13;;;;;;;;;;5053896;28;20170;-43
2022/06/04 11:30:59;;;;;;;42.50;35.40;;;;;;;;;;5052839;28;20189;-44
2022/06/04 11:33:35;;;;;;;44.47;34.93;;;;;;;;;;5053384;28;20289;-43
2022/06/04 11:36:13;;;;;;;36.03;28.13;;;;;;;;;;5054264;28;20177;-43
2022/06/04 11:38:39;;;;;;;37.27;31.17;;;;;;;;;;5053155;28;20178;-44
2022/06/04 11:41:05;;;;;;;38.33;31.50;;;;;;;;;;5051715;28;20247;-44
2022/06/04 11:43:50;;;;;;;35.10;29.87;;;;;;;;;;5054069;28;20178;-44
2022/06/04 11:46:27;;;;;;;39.80;32.13;;;;;;;;;;5044785;28;20170;-44
2022/06/04 11:49:02;;;;;;;37.10;32.67;;;;;;;;;;5052382;28;21200;-43
2022/06/04 11:51:37;;;;;;;32.47;25.83;;;;;;;;;;5052057;28;20166;-44
2022/06/04 11:54:17;;;;;;;34.37;27.90;;;;;;;;;;5049692;28;20297;-44
2022/06/04 11:57:03;;;;;;;38.90;32.40;;;;;;;;;;5039345;28;20182;-43
2022/06/04 11:59:29;;;;;;;35.50;28.40;;;;;;;;;;5046251;28;20175;-43
2022/06/04 12:01:57;;;;;;;36.60;28.50;;;;;;;;;;5051592;28;20726;-44
2022/06/04 12:04:45;;;;;;;33.50;26.07;;;;;;;;;;5052410;28;20264;-44
2022/06/04 12:07:18;;;;;;;39.40;29.07;;;;;;;;;;5046267;28;20816;-42
2022/06/04 12:09:50;;;;;;;32.13;27.40;;;;;;;;;;5051197;28;20998;-44
2022/06/04 12:12:23;;;;;;;31.83;25.57;;;;;;;;;;5052127;28;21052;-44
2022/06/04 12:14:49;;;;;;;34.50;26.67;;;;;;;;;;5053180;28;20288;-44
2022/06/04 12:17:18;;;;;;;34.53;27.07;;;;;;;;;;5052558;28;20179;-44
2022/06/04 12:25:36;;;;;;;29.40;21.23;;;;;;;;;;5058157;28;20175;-44
2022/06/04 12:28:03;;;;;;;30.53;23.50;;;;;;;;;;5053963;28;20752;-44
2022/06/04 12:30:32;;;;;;;25.07;20.87;;;;;;;;;;5052020;28;20989;-44
2022/06/04 12:32:58;;;;;;;25.73;19.13;;;;;;;;;;5052935;28;20960;-44
2022/06/04 12:35:31;;;;;;;28.73;21.47;;;;;;;;;;5052028;28;20315;-44
2022/06/04 12:37:59;;;;;;;23.67;18.37;;;;;;;;;;5056295;28;21273;-43
2022/06/04 12:40:33;;;;;;;30.77;23.57;;;;;;;;;;5059178;28;20194;-44
2022/06/04 12:43:08;;;;;;;28.77;22.53;;;;;;;;;;5048803;28;20171;-44
2022/06/04 12:45:36;;;;;;;31.10;24.40;;;;;;;;;;5050362;28;20182;-42
2022/06/04 12:48:03;;;;;;;31.97;21.87;;;;;;;;;;5050649;28;20265;-44
2022/06/04 12:50:31;;;;;;;28.43;23.30;;;;;;;;;;5047928;28;20196;-43
2022/06/04 12:53:06;;;;;;;24.27;20.10;;;;;;;;;;5049614;28;20186;-43
2022/06/04 12:55:33;;;;;;;27.27;19.73;;;;;;;;;;5050564;28;20991;-44
2022/06/04 12:58:01;;;;;;;26.17;19.97;;;;;;;;;;5047897;28;20184;-44
2022/06/04 13:00:39;;;;;;;24.67;20.40;;;;;;;;;;5049144;28;20206;-43
2022/06/04 13:03:05;;;;;;;21.07;16.87;;;;;;;;;;5048029;28;20163;-43
2022/06/04 13:05:31;;;;;;;27.83;21.23;;;;;;;;;;5046826;28;20220;-43
2022/06/04 13:08:00;;;;;;;32.30;20.33;;;;;;;;;;5047657;28;20250;-43
2022/06/04 13:10:29;;;;;;;27.80;19.53;;;;;;;;;;5047814;28;20813;-43
2022/06/04 13:13:01;;;;;;;21.80;17.73;;;;;;;;;;5050025;28;20900;-43
2022/06/04 13:15:33;;;;;;;25.40;19.93;;;;;;;;;;5043405;28;20906;-43
2022/06/04 13:17:59;;;;;;;25.93;19.53;;;;;;;;;;5046158;28;20183;-43
2022/06/04 13:20:32;;;;;;;19.27;15.07;;;;;;;;;;5046893;28;20207;-43
2022/06/04 13:23:01;;;;;;;26.63;17.80;;;;;;;;;;5044815;28;20298;-43
2022/06/04 13:25:34;;;;;;;25.70;20.07;;;;;;;;;;5043351;28;20956;-43
2022/06/04 13:28:00;;;;;;;23.70;15.50;;;;;;;;;;5046935;28;20372;-43
2022/06/04 13:30:32;;;;;;;19.03;14.60;;;;;;;;;;5045304;28;20184;-43
2022/06/04 13:33:06;;;;;;;22.07;14.50;;;;;;;;;;5047425;28;21123;-43
2022/06/04 13:35:33;;;;;;;28.13;15.83;;;;;;;;;;5049026;28;20188;-43
2022/06/04 13:37:59;;;;;;;23.97;14.97;;;;;;;;;;5045794;28;20204;-43
2022/06/04 13:40:29;;;;;;;23.93;16.23;;;;;;;;;;5045213;28;20326;-43
2022/06/04 13:42:56;;;;;;;18.80;15.00;;;;;;;;;;5044450;28;20185;-43
2022/06/04 13:45:33;;;;;;;21.47;15.67;;;;;;;;;;5045178;28;20259;-43
2022/06/04 13:48:13;;;;;;;21.80;17.33;;;;;;;;;;5048470;28;20185;-44
2022/06/04 13:50:47;;;;;;;22.07;15.37;;;;;;;;;;5046913;28;20184;-43
2022/06/04 13:53:20;;;;;;;20.73;15.43;;;;;;;;;;5037910;28;20262;-43
2022/06/04 13:55:52;;;;;;;19.73;15.67;;;;;;;;;;5045851;28;20188;-43
2022/06/04 13:58:20;;;;;;;24.30;17.03;;;;;;;;;;5039025;28;20620;-43
2022/06/04 14:00:48;;;;;;;19.87;15.40;;;;;;;;;;5036478;28;20214;-43
2022/06/04 14:03:20;;;;;;;18.97;15.07;;;;;;;;;;5044711;28;20226;-43
2022/06/04 14:05:49;;;;;;;17.40;12.10;;;;;;;;;;5049088;28;20487;-43
2022/06/04 14:08:19;;;;;;;20.57;13.73;;;;;;;;;;5044134;28;20256;-44
2022/06/04 14:11:01;;;;;;;20.03;12.70;;;;;;;;;;5047559;28;20183;-44
2022/06/04 14:13:46;;;;;;;19.70;13.90;;;;;;;;;;5045430;28;20208;-43
2022/06/04 14:16:22;;;;;;;15.70;11.37;;;;;;;;;;5043110;28;20182;-43
2022/06/04 14:19:07;;;;;;;18.57;13.77;;;;;;;;;;5045569;28;20255;-44
2022/06/04 14:21:39;;;;;;;20.90;13.73;;;;;;;;;;5041069;28;20396;-43
2022/06/04 14:24:05;;;;;;;12.93;10.30;;;;;;;;;;5048023;28;20687;-44
2022/06/04 14:26:40;;;;;;;16.00;10.03;;;;;;;;;;5049364;28;20499;-43
2022/06/04 14:29:25;;;;;;;17.73;11.90;;;;;;;;;;5038154;28;20211;-43
2022/06/04 14:31:58;;;;;;;14.67;11.40;;;;;;;;;;5044013;28;20939;-43
2022/06/04 14:34:28;;;;;;;21.97;13.23;;;;;;;;;;5050041;28;20183;-43
2022/06/04 14:36:55;;;;;;;21.97;13.00;;;;;;;;;;5045161;28;20417;-43
2022/06/04 14:39:22;;;;;;;23.77;12.73;;;;;;;;;;5043726;28;20189;-43
2022/06/04 14:41:54;;;;;;;18.60;11.40;;;;;;;;;;5044712;28;20214;-44
2022/06/04 14:44:27;;;;;;;18.63;11.33;;;;;;;;;;5042174;28;20191;-43
2022/06/04 14:47:11;;;;;;;18.33;12.13;;;;;;;;;;5046063;28;20190;-43
2022/06/04 14:49:37;;;;;;;16.30;12.07;;;;;;;;;;5051412;28;20332;-43